Time;durP1;ratioP1;P1;durP2;ratioP2;P2;SDS_P1;SDS_P2;PMS_P1;PMS_P2;Temp;Humidity;BMP_temperature;BMP_pressure;BME280_temperature;BME280_humidity;BME280_pressure;Samples;Min_cycle;Max_cycle;Signal;HPM_P1;HPM_P2
2022/03/11 00:01:27;;;;;;;8.07;6.03;;;;;;;6.47;50.77;101824.75;5054348;28;20372;-35
2022/03/11 00:03:52;;;;;;;10.67;6.03;;;;;;;6.49;51.60;101836.13;5054055;28;20084;-35
2022/03/11 00:06:17;;;;;;;8.70;6.17;;;;;;;6.50;50.70;101833.28;5053668;28;20040;-35
2022/03/11 00:08:43;;;;;;;9.47;5.80;;;;;;;6.42;51.72;101815.38;5053697;28;20024;-35
2022/03/11 00:11:08;;;;;;;12.67;5.90;;;;;;;6.48;51.49;101829.09;5053398;28;20326;-35
2022/03/11 00:13:35;;;;;;;10.07;7.00;;;;;;;6.43;52.00;101819.72;5054173;28;20075;-35
2022/03/11 00:16:00;;;;;;;9.35;6.15;;;;;;;6.40;51.94;101819.28;5054152;28;20048;-35
2022/03/11 00:18:26;;;;;;;9.57;6.10;;;;;;;6.45;50.75;101825.78;5053742;28;20448;-35
2022/03/11 00:20:51;;;;;;;9.77;6.13;;;;;;;6.36;51.23;101821.47;5053722;28;20028;-35
2022/03/11 00:23:17;;;;;;;8.85;6.38;;;;;;;6.34;51.14;101807.34;5053479;28;20040;-35
2022/03/11 00:25:42;;;;;;;9.87;6.10;;;;;;;6.38;50.64;101824.81;5052870;28;20045;-35
2022/03/11 00:28:07;;;;;;;10.03;6.20;;;;;;;6.39;50.51;101817.56;5053897;28;20029;-35
2022/03/11 00:30:33;;;;;;;9.90;5.80;;;;;;;6.40;50.96;101819.28;5053951;28;20066;-35
2022/03/11 00:32:58;;;;;;;10.70;6.13;;;;;;;6.40;51.30;101819.28;5052220;28;20028;-35
2022/03/11 00:35:24;;;;;;;8.33;6.37;;;;;;;6.31;51.42;101804.22;5054210;28;20119;-35
2022/03/11 00:37:49;;;;;;;9.40;6.60;;;;;;;6.32;50.00;101822.84;5053578;28;20040;-35
2022/03/11 00:40:15;;;;;;;7.77;5.97;;;;;;;6.33;50.55;101815.59;5053308;28;20052;-35
2022/03/11 00:42:40;;;;;;;10.05;5.82;;;;;;;6.36;51.51;101820.63;5053271;28;20025;-35
2022/03/11 00:45:06;;;;;;;8.45;6.50;;;;;;;6.29;51.67;101803.53;5053226;28;20044;-35
2022/03/11 00:47:32;;;;;;;8.68;6.55;;;;;;;6.33;50.45;101820.97;5053548;28;20025;-35
2022/03/11 00:49:57;;;;;;;7.88;5.65;;;;;;;6.32;50.45;101811.25;5053222;28;20037;-35
2022/03/11 00:52:23;;;;;;;8.00;5.75;;;;;;;6.33;50.39;101811.06;5053193;28;20035;-35
2022/03/11 00:54:48;;;;;;;9.57;6.67;;;;;;;6.24;50.36;101798.72;5053270;28;20090;-35
2022/03/11 00:57:16;;;;;;;8.60;6.23;;;;;;;6.34;50.22;101809.22;5052925;28;20108;-35
2022/03/11 00:59:41;;;;;;;10.48;5.93;;;;;;;6.22;50.79;101795.38;5053126;28;20117;-35
2022/03/11 01:02:07;;;;;;;8.77;5.93;;;;;;;6.29;51.41;101804.38;5052912;28;20112;-35
2022/03/11 01:04:32;;;;;;;8.83;6.13;;;;;;;6.22;50.37;101800.75;5068828;28;20025;-36
2022/03/11 01:06:57;;;;;;;8.93;6.80;;;;;;;6.16;50.63;101801.47;5052912;28;20107;-35
2022/03/11 01:09:23;;;;;;;8.10;5.90;;;;;;;6.19;50.78;101801.94;5053240;28;20029;-35
2022/03/11 01:11:48;;;;;;;7.70;5.93;;;;;;;6.12;50.97;101781.34;5052618;28;20036;-35
2022/03/11 01:20:58;;;;;;;11.07;6.50;;;;;;;6.05;51.29;101783.06;5053129;28;20043;-35
2022/03/11 01:23:23;;;;;;;7.82;5.93;;;;;;;5.96;51.01;101765.38;5051254;28;20057;-35
2022/03/11 01:25:48;;;;;;;9.65;5.88;;;;;;;6.06;50.87;101779.41;5052096;28;20032;-35
2022/03/11 01:28:14;;;;;;;10.10;7.30;;;;;;;6.00;51.06;101772.03;5051360;28;20041;-35
2022/03/11 01:30:40;;;;;;;9.50;6.67;;;;;;;5.99;50.75;101773.03;5052242;28;20029;-35
2022/03/11 01:33:06;;;;;;;8.80;6.72;;;;;;;5.91;51.54;101758.69;5052422;28;20108;-35
2022/03/11 01:35:31;;;;;;;8.83;6.20;;;;;;;5.83;51.37;101742.59;5052556;28;20063;-35
2022/03/11 01:37:57;;;;;;;9.93;7.23;;;;;;;5.90;50.69;101764.19;5052432;28;20366;-35
2022/03/11 01:40:23;;;;;;;8.27;6.53;;;;;;;5.84;51.69;101752.31;5053249;28;20499;-35
2022/03/11 01:42:48;;;;;;;9.60;6.45;;;;;;;5.84;51.57;101752.31;5053002;28;20357;-35
2022/03/11 01:45:13;;;;;;;7.93;6.43;;;;;;;5.87;51.31;101751.13;5052913;28;20028;-35
2022/03/11 01:47:39;;;;;;;10.50;7.07;;;;;;;5.85;51.39;101739.72;5052382;28;20053;-35
2022/03/11 01:50:05;;;;;;;9.77;6.73;;;;;;;5.85;51.94;101745.91;5052690;28;20036;-35
2022/03/11 01:52:30;;;;;;;9.50;6.50;;;;;;;5.78;51.84;101725.34;5052381;28;20029;-35
2022/03/11 01:54:55;;;;;;;8.57;7.27;;;;;;;5.80;51.48;101734.88;5052603;28;20071;-35
2022/03/11 01:57:21;;;;;;;7.83;5.90;;;;;;;5.84;53.65;101730.81;5051943;28;20434;-35
2022/03/11 01:59:47;;;;;;;8.48;6.50;;;;;;;5.82;51.57;101719.44;5052741;28;20021;-35
2022/03/11 02:02:12;;;;;;;10.77;7.57;;;;;;;5.84;51.25;101717.41;5052582;28;20029;-35
2022/03/11 02:04:40;;;;;;;9.93;6.63;;;;;;;5.77;51.81;101715.63;5052609;28;20087;-35
2022/03/11 02:07:05;;;;;;;7.85;5.93;;;;;;;5.71;51.85;101706.44;5051936;28;20028;-35
2022/03/11 02:09:31;;;;;;;8.60;6.82;;;;;;;5.79;51.71;101721.63;5052934;28;20086;-35
2022/03/11 02:11:57;;;;;;;7.88;6.53;;;;;;;5.71;51.66;101717.19;5052578;28;20124;-35
2022/03/11 02:14:22;;;;;;;10.23;6.50;;;;;;;5.72;52.07;101713.47;5052653;28;20031;-35
2022/03/11 02:16:47;;;;;;;9.33;6.53;;;;;;;5.67;51.99;101700.59;5052584;28;20450;-35
2022/03/11 02:19:13;;;;;;;8.77;6.37;;;;;;;5.67;52.05;101699.75;5052310;28;20052;-35
2022/03/11 02:21:44;;;;;;;8.20;6.60;;;;;;;5.59;52.41;101687.22;5052434;28;20462;-35
2022/03/11 02:24:12;;;;;;;9.52;6.30;;;;;;;5.61;52.78;101684.34;5051825;28;20020;-35
2022/03/11 02:26:38;;;;;;;8.80;6.55;;;;;;;5.58;52.33;101690.91;5052302;28;20029;-35
2022/03/11 02:29:04;;;;;;;8.93;6.40;;;;;;;5.47;52.52;101672.56;5051986;28;20454;-35
2022/03/11 02:31:30;;;;;;;8.77;7.25;;;;;;;5.47;51.99;101671.72;5052206;28;20025;-35
2022/03/11 02:33:57;;;;;;;8.23;6.20;;;;;;;5.53;52.27;101673.69;5052479;28;20116;-35
2022/03/11 02:36:23;;;;;;;7.72;6.13;;;;;;;5.46;52.40;101662.81;5055563;28;20036;-35
2022/03/11 02:38:49;;;;;;;8.82;6.68;;;;;;;5.46;52.73;101678.06;5055869;28;20052;-35
2022/03/11 02:41:15;;;;;;;9.02;6.45;;;;;;;5.41;53.22;101670.56;5055732;28;20433;-35
2022/03/11 02:43:43;;;;;;;8.65;6.72;;;;;;;5.30;52.59;101655.72;5055396;28;20060;-35
2022/03/11 02:46:10;;;;;;;9.02;6.38;;;;;;;5.38;53.63;101674.44;5055298;28;20120;-35
2022/03/11 02:48:35;;;;;;;8.77;6.35;;;;;;;5.16;52.67;101646.56;5055532;28;20029;-35
2022/03/11 02:51:01;;;;;;;8.57;6.27;;;;;;;5.34;52.93;101667.75;5055276;28;20029;-35
2022/03/11 02:53:26;;;;;;;9.00;6.97;;;;;;;5.27;52.38;101656.09;5054955;28;20029;-35
2022/03/11 02:55:52;;;;;;;10.48;5.70;;;;;;;5.31;53.22;101649.31;5055583;28;20021;-35
2022/03/11 02:58:18;;;;;;;9.10;7.15;;;;;;;5.29;52.95;101663.94;5055208;28;20028;-35
2022/03/11 03:00:43;;;;;;;9.35;7.00;;;;;;;5.19;53.70;101648.06;5054850;28;20441;-35
2022/03/11 03:03:08;;;;;;;8.70;6.47;;;;;;;5.28;53.15;101665.78;5055024;28;20044;-35
2022/03/11 03:05:34;;;;;;;8.53;6.67;;;;;;;5.28;54.39;101663.09;5055119;28;20108;-35
2022/03/11 03:07:59;;;;;;;8.52;5.97;;;;;;;5.23;53.41;101653.94;5054924;28;20451;-35
2022/03/11 03:10:25;;;;;;;8.00;6.10;;;;;;;5.16;53.37;101664.50;5055005;28;20036;-35
2022/03/11 03:12:50;;;;;;;8.43;6.83;;;;;;;5.21;53.71;101653.25;5054595;28;20082;-35
2022/03/11 03:15:16;;;;;;;9.27;6.40;;;;;;;5.25;53.37;101663.44;5054862;28;20041;-35
2022/03/11 03:17:41;;;;;;;9.40;6.63;;;;;;;5.06;53.48;101629.03;5054712;28;20025;-35
2022/03/11 03:20:08;;;;;;;8.23;6.53;;;;;;;5.20;53.32;101657.78;5054908;28;20025;-35
2022/03/11 03:22:34;;;;;;;8.50;6.35;;;;;;;5.20;53.75;101659.63;5054542;28;20096;-35
2022/03/11 03:24:59;;;;;;;12.63;7.30;;;;;;;5.07;53.91;101642.25;5054691;28;20032;-35
2022/03/11 03:27:24;;;;;;;9.67;6.60;;;;;;;5.14;53.56;101655.81;5054567;28;20060;-35
2022/03/11 03:29:50;;;;;;;9.50;6.87;;;;;;;5.12;53.42;101652.44;5070354;28;20150;-35
2022/03/11 03:32:15;;;;;;;8.83;6.17;;;;;;;5.11;53.70;101651.63;5054799;28;20048;-35
2022/03/11 03:34:41;;;;;;;8.37;6.10;;;;;;;5.09;54.04;101647.44;5054712;28;20032;-35
2022/03/11 03:37:09;;;;;;;8.70;6.50;;;;;;;5.13;54.03;101649.63;5054523;28;20327;-35
2022/03/11 03:39:39;;;;;;;9.02;6.28;;;;;;;5.10;53.60;101643.75;5054670;28;20501;-35
2022/03/11 03:42:05;;;;;;;12.50;6.60;;;;;;;5.08;53.54;101649.31;5054299;28;20159;-35
2022/03/11 03:44:31;;;;;;;;;;;;;;;5.07;53.73;101647.59;5055010;28;20032;-35
2022/03/11 03:46:56;;;;;;;10.43;6.70;;;;;;;4.97;54.07;101636.25;5053029;28;19913;-35
2022/03/11 03:49:22;;;;;;;8.53;6.40;;;;;;;5.03;53.62;101640.13;5054326;28;20033;-35
2022/03/11 03:51:47;;;;;;;7.10;5.67;;;;;;;4.89;54.14;101620.25;5054407;28;20624;-35
2022/03/11 03:54:13;;;;;;;10.17;6.73;;;;;;;5.07;54.04;101636.88;5054415;28;20044;-35
2022/03/11 03:56:40;;;;;;;;;;;;;;;5.11;52.94;101645.41;5054622;28;20040;-42
2022/03/11 03:59:06;;;;;;;8.85;5.72;;;;;;;5.05;54.68;101643.44;5053693;28;20448;-35
2022/03/11 04:01:33;;;;;;;9.75;6.25;;;;;;;5.04;53.41;101639.94;5054178;28;20033;-35
2022/03/11 04:03:59;;;;;;;9.77;7.50;;;;;;;5.07;53.17;101638.72;5053502;28;20035;-35
2022/03/11 04:06:24;;;;;;;10.40;6.82;;;;;;;5.09;53.46;101642.09;5054191;28;20104;-35
2022/03/11 04:08:49;;;;;;;8.60;6.43;;;;;;;5.07;54.02;101638.72;5053966;28;20025;-35
2022/03/11 04:11:15;;;;;;;14.90;5.97;;;;;;;5.08;53.96;101633.22;5054341;28;20102;-35
2022/03/11 04:13:40;;;;;;;7.70;5.63;;;;;;;5.05;53.16;101630.03;5053592;28;20025;-35
2022/03/11 04:16:05;;;;;;;9.23;6.23;;;;;;;4.91;53.42;101621.72;5053687;28;20493;-35
2022/03/11 04:18:31;;;;;;;7.50;5.73;;;;;;;4.94;53.69;101628.59;5053538;28;20048;-35
2022/03/11 04:20:56;;;;;;;8.77;5.93;;;;;;;4.89;53.47;101631.81;5053618;28;20560;-35
2022/03/11 04:23:22;;;;;;;9.95;6.88;;;;;;;4.91;53.92;101634.28;5053486;28;20025;-35
2022/03/11 04:25:47;;;;;;;9.47;7.43;;;;;;;4.90;53.97;101633.47;5053973;28;20055;-35
2022/03/11 04:28:12;;;;;;;12.33;7.20;;;;;;;4.89;53.81;101625.59;5053451;28;20039;-35
2022/03/11 04:30:38;;;;;;;13.43;8.13;;;;;;;4.80;53.24;101615.94;5053834;28;20029;-35
2022/03/11 04:33:03;;;;;;;10.20;7.03;;;;;;;4.84;53.40;101626.13;5053253;28;20036;-35
2022/03/11 04:35:28;;;;;;;9.17;6.07;;;;;;;4.85;53.63;101624.28;5053612;28;20154;-35
2022/03/11 04:37:54;;;;;;;7.67;5.97;;;;;;;4.82;53.47;101614.72;5053205;28;20048;-35
2022/03/11 04:40:19;;;;;;;7.63;5.80;;;;;;;4.85;53.93;101616.25;5053899;28;20076;-35
2022/03/11 04:42:44;;;;;;;7.87;5.77;;;;;;;4.80;53.76;101614.09;5053142;28;20032;-35
2022/03/11 04:45:10;;;;;;;6.90;5.37;;;;;;;4.80;53.44;101622.13;5052768;28;20043;-35
2022/03/11 04:47:35;;;;;;;7.37;5.83;;;;;;;4.83;53.63;101620.91;5053161;28;20041;-35
2022/03/11 04:50:01;;;;;;;11.02;6.15;;;;;;;4.81;53.40;101625.63;5053083;28;20353;-35
2022/03/11 04:52:27;;;;;;;19.77;6.38;;;;;;;4.79;53.75;101619.63;5052951;28;20509;-35
2022/03/11 04:54:52;;;;;;;7.10;5.10;;;;;;;4.74;53.97;101622.81;5052911;28;20465;-35
2022/03/11 04:57:17;;;;;;;6.10;5.07;;;;;;;4.74;54.41;101617.47;5052897;28;20025;-35
2022/03/11 04:59:44;;;;;;;9.63;6.10;;;;;;;4.57;54.01;101591.72;5052882;28;20037;-35
2022/03/11 05:02:09;;;;;;;9.57;5.15;;;;;;;4.71;54.25;101612.44;5052510;28;20526;-35
2022/03/11 05:04:34;;;;;;;8.00;5.37;;;;;;;4.71;54.00;101617.81;5052906;28;20033;-35
2022/03/11 05:07:00;;;;;;;7.70;5.63;;;;;;;4.72;53.67;101614.09;5053176;28;20374;-35
2022/03/11 05:09:25;;;;;;;6.70;5.23;;;;;;;4.75;54.51;101612.94;5052794;28;20393;-35
2022/03/11 05:11:50;;;;;;;8.50;5.70;;;;;;;4.73;53.45;101610.41;5052694;28;20033;-35
2022/03/11 05:14:16;;;;;;;7.33;5.40;;;;;;;4.76;53.99;101610.06;5052677;28;20029;-35
2022/03/11 05:16:41;;;;;;;7.83;6.27;;;;;;;4.70;54.18;101586.66;5053047;28;20028;-35
2022/03/11 05:19:06;;;;;;;6.80;5.27;;;;;;;4.73;54.17;101615.78;5052909;28;20349;-35
2022/03/11 05:21:32;;;;;;;6.90;5.43;;;;;;;4.75;53.84;101612.94;5052803;28;20051;-35
2022/03/11 05:23:57;;;;;;;7.67;4.87;;;;;;;4.69;54.02;101601.06;5052661;28;20021;-35
2022/03/11 05:26:25;;;;;;;7.50;5.73;;;;;;;4.75;53.98;101604.91;5052652;28;20039;-35
2022/03/11 05:28:59;;;;;;;11.07;6.05;;;;;;;4.69;53.78;101611.78;5052935;28;20420;-35
2022/03/11 05:31:26;;;;;;;7.30;5.38;;;;;;;4.67;53.95;101605.75;5052854;28;20021;-35
2022/03/11 05:33:52;;;;;;;8.98;5.47;;;;;;;4.68;54.26;101599.38;5052509;28;20033;-35
2022/03/11 05:36:18;;;;;;;12.18;5.30;;;;;;;4.68;54.39;101591.34;5052662;28;20028;-35
2022/03/11 05:38:43;;;;;;;10.48;6.03;;;;;;;4.71;54.27;101593.69;5052264;28;20029;-35
2022/03/11 05:41:09;;;;;;;9.53;5.43;;;;;;;4.61;54.62;101580.50;5052471;28;20025;-35
2022/03/11 05:43:36;;;;;;;8.05;5.88;;;;;;;4.71;54.17;101587.50;5052063;28;20052;-35
2022/03/11 05:46:02;;;;;;;10.52;5.68;;;;;;;4.70;55.13;101596.56;5052653;28;20044;-35
2022/03/11 05:48:27;;;;;;;7.88;5.28;;;;;;;4.72;54.74;101598.03;5052365;28;20108;-35
2022/03/11 05:50:53;;;;;;;8.00;5.57;;;;;;;4.64;55.00;101579.34;5052624;28;20100;-35
2022/03/11 05:53:18;;;;;;;8.53;5.30;;;;;;;4.67;55.13;101589.69;5052305;28;20017;-35
2022/03/11 05:55:43;;;;;;;8.73;5.30;;;;;;;4.67;54.91;101595.03;5052354;28;20120;-35
2022/03/11 05:58:09;;;;;;;8.30;5.27;;;;;;;4.70;54.61;101591.19;5052215;28;20041;-35
2022/03/11 06:00:34;;;;;;;8.57;4.97;;;;;;;4.60;55.36;101564.59;5052858;28;20021;-35
2022/03/11 06:02:59;;;;;;;8.67;5.97;;;;;;;4.67;54.94;101592.34;5051931;28;20028;-35
2022/03/11 06:05:25;;;;;;;8.77;5.40;;;;;;;4.67;55.09;101583.50;5052673;28;20036;-35
2022/03/11 06:07:50;;;;;;;8.17;5.33;;;;;;;4.59;55.60;101576.34;5052408;28;20385;-35
2022/03/11 06:10:15;;;;;;;6.80;4.90;;;;;;;4.65;56.14;101575.63;5055211;28;20037;-35
2022/03/11 06:12:41;;;;;;;9.17;5.73;;;;;;;4.69;55.29;101589.53;5056443;28;20488;-35
2022/03/11 06:15:11;;;;;;;8.37;4.97;;;;;;;4.70;55.85;101589.34;5056037;28;20477;-35
2022/03/11 06:17:37;;;;;;;12.73;5.93;;;;;;;4.59;55.38;101582.53;5055917;28;20031;-35
2022/03/11 06:20:03;;;;;;;10.30;6.40;;;;;;;4.55;55.92;101570.47;5055996;28;20025;-35
2022/03/11 06:22:29;;;;;;;12.18;6.13;;;;;;;4.64;55.64;101588.19;5055812;28;20060;-35
2022/03/11 06:24:55;;;;;;;9.13;5.97;;;;;;;4.57;55.62;101570.31;5055818;28;20405;-35
2022/03/11 06:27:24;;;;;;;9.65;5.90;;;;;;;4.75;55.30;101586.97;5055344;28;20551;-35
2022/03/11 06:29:49;;;;;;;8.82;5.72;;;;;;;4.75;56.49;101586.97;5055362;28;20473;-35
2022/03/11 06:32:14;;;;;;;9.65;5.93;;;;;;;4.76;56.12;101593.16;5055878;28;20032;-35
2022/03/11 06:34:40;;;;;;;12.40;5.90;;;;;;;4.76;56.03;101590.47;5055809;28;20083;-35
2022/03/11 06:37:05;;;;;;;10.47;6.30;;;;;;;4.81;56.49;101597.00;5055702;28;20560;-35
2022/03/11 06:39:30;;;;;;;10.73;6.03;;;;;;;4.85;56.37;101600.16;5055978;28;20041;-35
2022/03/11 06:41:56;;;;;;;9.27;5.40;;;;;;;4.87;56.73;101598.97;5055527;28;20128;-35
2022/03/11 06:44:21;;;;;;;9.13;6.27;;;;;;;4.86;56.44;101591.94;5055874;28;20068;-35
2022/03/11 06:46:46;;;;;;;10.30;6.27;;;;;;;4.90;57.04;101595.09;5056138;28;20063;-35
2022/03/11 06:49:12;;;;;;;8.87;5.90;;;;;;;4.88;56.75;101587.25;5056136;28;20033;-35
2022/03/11 06:51:38;;;;;;;12.53;7.23;;;;;;;4.93;56.25;101586.72;5055679;28;20021;-35
2022/03/11 06:54:06;;;;;;;10.60;6.03;;;;;;;4.96;56.53;101589.03;5055383;28;20278;-35
2022/03/11 06:56:32;;;;;;;11.95;6.10;;;;;;;4.96;56.54;101577.47;5055297;28;20033;-35
2022/03/11 06:58:57;;;;;;;11.90;6.75;;;;;;;5.12;56.18;101582.75;5055328;28;20154;-38
2022/03/11 07:01:24;;;;;;;7.90;5.67;;;;;;;5.20;56.00;101588.06;5055470;28;20068;-35
2022/03/11 07:03:50;;;;;;;10.85;6.10;;;;;;;5.24;55.70;101589.38;5055154;28;20107;-35
2022/03/11 07:06:15;;;;;;;10.07;5.83;;;;;;;5.36;55.26;101585.25;5055120;28;20029;-35
2022/03/11 07:08:40;;;;;;;9.07;5.80;;;;;;;5.37;55.15;101584.28;5055447;28;20271;-35
2022/03/11 07:11:06;;;;;;;11.30;5.87;;;;;;;5.39;55.26;101574.19;5055328;28;20029;-35
2022/03/11 07:13:31;;;;;;;12.07;6.27;;;;;;;5.49;54.70;101575.78;5055253;28;20051;-35
2022/03/11 07:15:57;;;;;;;8.47;5.70;;;;;;;5.55;54.99;101569.69;5055433;28;20025;-35
2022/03/11 07:18:23;;;;;;;10.27;6.35;;;;;;;5.59;54.67;101571.84;5054560;28;20029;-35
2022/03/11 07:20:48;;;;;;;13.50;6.57;;;;;;;5.60;55.05;101560.09;5055027;28;20033;-35
2022/03/11 07:23:14;;;;;;;13.30;6.47;;;;;;;5.75;54.29;101573.53;5055642;28;20025;-35
2022/03/11 07:25:40;;;;;;;12.20;6.40;;;;;;;5.82;54.70;101571.81;5055009;28;20367;-36
2022/03/11 07:28:05;;;;;;;14.23;7.07;;;;;;;5.89;54.37;101580.78;5055245;28;20047;-35
2022/03/11 07:30:30;;;;;;;14.30;7.50;;;;;;;5.84;54.18;101559.03;5054600;28;20037;-35
2022/03/11 07:32:56;;;;;;;12.10;6.87;;;;;;;5.98;53.74;101578.91;5054407;28;20036;-35
2022/03/11 07:35:21;;;;;;;12.90;6.80;;;;;;;6.07;54.71;101576.97;5055488;28;20033;-35
2022/03/11 07:37:46;;;;;;;10.07;6.67;;;;;;;6.12;53.55;101571.91;5054602;28;20032;-35
2022/03/11 07:40:13;;;;;;;14.77;6.20;;;;;;;6.18;53.77;101574.66;5055289;28;20290;-35
2022/03/11 07:42:42;;;;;;;;;;;;;;;6.31;53.70;101574.03;5055032;28;20025;-35
2022/03/11 07:45:10;;;;;;;10.45;6.72;;;;;;;6.28;53.71;101563.66;5055233;28;19912;-35
2022/03/11 07:47:36;;;;;;;12.68;6.63;;;;;;;6.41;52.96;101571.91;5054627;28;20037;-35
2022/03/11 07:50:01;;;;;;;10.90;6.30;;;;;;;6.47;53.41;101564.94;5055081;28;20033;-35
2022/03/11 07:52:27;;;;;;;13.45;7.28;;;;;;;6.48;52.92;101565.78;5055095;28;20175;-35
2022/03/11 07:54:52;;;;;;;11.40;7.23;;;;;;;6.63;52.70;101571.97;5054439;28;20033;-35
2022/03/11 07:57:17;;;;;;;10.30;6.57;;;;;;;6.63;53.05;101548.59;5054803;28;20343;-35
2022/03/11 07:59:43;;;;;;;10.53;6.87;;;;;;;6.71;52.46;101550.38;5054753;28;20035;-35
2022/03/11 08:02:08;;;;;;;10.47;6.57;;;;;;;6.85;51.67;101560.25;5054177;28;20025;-35
2022/03/11 08:04:34;;;;;;;13.18;6.95;;;;;;;6.94;51.85;101556.44;5054095;28;20055;-35
2022/03/11 08:07:01;;;;;;;10.40;6.30;;;;;;;6.99;51.53;101555.88;5054134;28;20033;-35
2022/03/11 08:09:28;;;;;;;11.73;7.40;;;;;;;7.00;51.18;101538.72;5054056;28;20123;-35
2022/03/11 08:11:54;;;;;;;11.13;6.68;;;;;;;7.09;50.80;101552.88;5054411;28;20025;-35
2022/03/11 08:14:19;;;;;;;10.15;6.53;;;;;;;7.13;51.11;101552.31;5053918;28;20029;-35
2022/03/11 08:16:44;;;;;;;14.27;7.33;;;;;;;7.18;50.79;101549.03;5053834;28;20065;-35
2022/03/11 08:19:10;;;;;;;8.90;6.97;;;;;;;7.26;52.00;101543.53;5053832;28;20120;-35
2022/03/11 08:21:35;;;;;;;12.27;6.90;;;;;;;7.28;51.36;101529.91;5053866;28;20145;-35
2022/03/11 08:24:01;;;;;;;9.38;6.95;;;;;;;7.43;51.28;101541.41;5054063;28;20440;-35
2022/03/11 08:26:27;;;;;;;13.23;7.40;;;;;;;7.42;51.09;101524.44;5053957;28;20032;-35
2022/03/11 08:28:53;;;;;;;10.18;7.47;;;;;;;7.46;50.61;101519.47;5053582;28;20029;-35
2022/03/11 08:31:18;;;;;;;12.65;7.38;;;;;;;7.62;50.91;101529.16;5053334;28;20408;-35
2022/03/11 08:33:43;;;;;;;11.53;7.40;;;;;;;7.66;50.46;101522.34;5053545;28;20112;-35
2022/03/11 08:36:09;;;;;;;12.27;7.67;;;;;;;7.66;51.37;101515.13;5053823;28;20057;-35
2022/03/11 08:38:34;;;;;;;9.50;7.47;;;;;;;7.80;50.53;101526.78;5053345;28;20025;-35
2022/03/11 08:41:02;;;;;;;12.87;8.63;;;;;;;7.84;51.06;101517.31;5053584;28;20044;-35
2022/03/11 08:43:27;;;;;;;9.77;7.78;;;;;;;7.95;49.77;101524.00;5053030;28;20143;-35
2022/03/11 08:45:53;;;;;;;12.33;8.30;;;;;;;8.06;49.97;101526.16;5053402;28;20037;-35
2022/03/11 08:48:18;;;;;;;11.80;7.43;;;;;;;8.12;49.75;101529.94;5052964;28;20025;-35
2022/03/11 08:50:44;;;;;;;10.80;7.63;;;;;;;8.06;51.40;101503.78;5053479;28;20040;-35
2022/03/11 08:53:09;;;;;;;13.80;8.47;;;;;;;8.14;49.54;101514.38;5053307;28;20032;-35
2022/03/11 08:55:36;;;;;;;10.30;7.43;;;;;;;8.18;49.64;101508.41;5053067;28;20028;-35
2022/03/11 08:58:02;;;;;;;14.93;8.35;;;;;;;8.35;50.12;101527.78;5053515;28;20029;-35
2022/03/11 09:00:27;;;;;;;11.87;8.50;;;;;;;8.43;49.91;101514.16;5053154;28;20025;-35
2022/03/11 09:02:53;;;;;;;11.17;7.77;;;;;;;8.47;49.48;101507.34;5053322;28;20033;-35
2022/03/11 09:05:20;;;;;;;15.32;8.27;;;;;;;8.63;49.42;101516.09;5053258;28;20021;-35
2022/03/11 09:07:47;;;;;;;10.88;7.53;;;;;;;8.70;49.61;101520.50;5052949;28;20044;-35
2022/03/11 09:10:13;;;;;;;15.73;8.90;;;;;;;8.75;49.25;101520.72;5052863;28;20425;-35
2022/03/11 09:12:39;;;;;;;14.17;8.17;;;;;;;8.75;49.96;101504.53;5053033;28;20032;-35
2022/03/11 09:15:06;;;;;;;12.85;7.50;;;;;;;8.85;49.42;101517.63;5052926;28;20025;-35
2022/03/11 09:17:32;;;;;;;11.27;7.88;;;;;;;8.85;49.27;101508.72;5052655;28;20041;-35
2022/03/11 09:20:02;;;;;;;14.13;7.97;;;;;;;8.95;49.04;101514.56;5053313;28;20102;-35
2022/03/11 09:22:28;;;;;;;10.93;7.85;;;;;;;8.99;49.65;101494.22;5053227;28;20082;-35
2022/03/11 09:24:53;;;;;;;10.98;7.30;;;;;;;9.15;49.50;101501.94;5052986;28;20029;-35
2022/03/11 09:27:18;;;;;;;11.00;8.07;;;;;;;9.25;48.06;101494.25;5052775;28;20111;-35
2022/03/11 09:29:44;;;;;;;17.07;7.90;;;;;;;9.31;48.72;101481.78;5052507;28;20056;-35
2022/03/11 09:32:10;;;;;;;11.23;7.35;;;;;;;9.45;48.87;101488.84;5052710;28;20028;-35
2022/03/11 09:34:37;;;;;;;12.25;7.80;;;;;;;9.49;48.43;101484.72;5053138;28;20029;-35
2022/03/11 09:37:03;;;;;;;11.30;7.53;;;;;;;9.60;47.55;101490.53;5052525;28;20094;-35
2022/03/11 09:39:28;;;;;;;11.20;7.38;;;;;;;9.72;47.12;101486.16;5053344;28;20028;-35
2022/03/11 09:41:54;;;;;;;13.27;7.70;;;;;;;9.86;48.22;101482.41;5052699;28;20048;-35
2022/03/11 09:44:20;;;;;;;12.60;8.23;;;;;;;9.92;47.39;101484.25;5054676;28;20025;-35
2022/03/11 09:46:46;;;;;;;12.25;7.28;;;;;;;9.92;47.97;101478.03;5057540;28;20102;-35
2022/03/11 09:49:12;;;;;;;;;;;;;;;10.11;48.03;101481.72;5057257;28;20032;-35
2022/03/11 09:51:40;;;;;;;11.27;8.50;;;;;;;10.10;46.79;101458.41;5056787;28;19999;-35
2022/03/11 09:54:05;;;;;;;13.75;8.25;;;;;;;10.18;47.67;101460.91;5056415;28;20103;-35
2022/03/11 09:56:34;;;;;;;10.80;8.20;;;;;;;10.35;46.97;101461.31;5057080;28;20147;-35
2022/03/11 09:58:59;;;;;;;10.90;7.50;;;;;;;10.42;46.95;101462.91;5056107;28;20107;-35
2022/03/11 10:01:24;;;;;;;12.50;7.90;;;;;;;10.47;47.62;101446.88;5056711;28;20064;-35
2022/03/11 10:03:50;;;;;;;12.90;8.10;;;;;;;10.56;46.97;101442.88;5056118;28;20067;-36
2022/03/11 10:06:15;;;;;;;15.87;8.00;;;;;;;10.60;46.13;101434.34;5056638;28;20082;-36
2022/03/11 10:08:44;;;;;;;14.90;7.80;;;;;;;10.68;47.22;101426.78;5056264;28;20101;-36
2022/03/11 10:11:23;;;;;;;12.73;7.70;;;;;;;10.83;46.51;101437.28;5055858;28;20037;-35
2022/03/11 10:13:52;;;;;;;16.23;8.50;;;;;;;10.88;47.04;101429.34;5056327;28;20087;-35
2022/03/11 10:16:22;;;;;;;11.13;7.28;;;;;;;11.03;46.71;101429.91;5056279;28;20385;-35
2022/03/11 10:18:55;;;;;;;12.13;7.15;;;;;;;11.18;47.18;101423.34;5056433;28;20354;-36
2022/03/11 10:21:26;;;;;;;10.43;7.18;;;;;;;11.33;47.11;101421.13;5055535;28;20040;-35
2022/03/11 10:23:52;;;;;;;13.40;6.75;;;;;;;11.37;46.47;101421.47;5056183;28;20108;-35
2022/03/11 10:26:34;;;;;;;12.63;7.77;;;;;;;11.42;46.53;101422.50;5056328;28;20489;-35
2022/03/11 10:29:01;;;;;;;10.40;6.97;;;;;;;11.49;45.77;101408.88;5056022;28;20032;-35
2022/03/11 10:31:45;;;;;;;11.27;7.05;;;;;;;11.57;46.25;101422.97;5056223;28;20056;-35
2022/03/11 10:34:18;;;;;;;14.45;7.10;;;;;;;11.59;46.71;101407.31;5055641;28;20025;-35
2022/03/11 10:36:55;;;;;;;10.48;7.22;;;;;;;11.70;46.42;101407.63;5056346;28;20032;-36
2022/03/11 10:39:29;;;;;;;15.43;7.88;;;;;;;11.69;46.21;101376.16;5056142;28;20178;-36
2022/03/11 10:42:00;;;;;;;20.60;9.20;;;;;;;11.99;46.52;101398.75;5056326;28;20029;-36
2022/03/11 10:44:27;;;;;;;14.02;7.43;;;;;;;12.03;45.58;101394.56;5055947;28;20040;-36
2022/03/11 10:47:16;;;;;;;14.30;7.78;;;;;;;12.18;46.54;101401.47;5055981;28;20140;-36
2022/03/11 10:49:48;;;;;;;10.45;7.40;;;;;;;12.26;45.54;101387.59;5055683;28;20067;-36
2022/03/11 10:52:13;;;;;;;11.02;7.13;;;;;;;12.27;45.35;101394.69;5055493;28;20071;-35
2022/03/11 10:54:42;;;;;;;9.57;7.10;;;;;;;12.26;45.08;101390.31;5055071;28;20424;-36
2022/03/11 10:57:09;;;;;;;14.27;7.45;;;;;;;12.33;45.12;101385.63;5055545;28;20430;-36
2022/03/11 10:59:35;;;;;;;10.10;6.72;;;;;;;12.50;45.60;101378.50;5055155;28;20028;-36
2022/03/11 11:02:00;;;;;;;13.65;7.00;;;;;;;12.65;45.95;101388.94;5055588;28;20024;-36
2022/03/11 11:04:26;;;;;;;16.77;8.02;;;;;;;12.66;45.05;101366.16;5055989;28;20025;-36
2022/03/11 11:06:52;;;;;;;15.55;8.80;;;;;;;12.71;44.13;101381.75;5054908;28;20025;-36
2022/03/11 11:09:21;;;;;;;16.30;7.78;;;;;;;12.67;43.47;101377.84;5054919;28;20454;-36
2022/03/11 11:11:46;;;;;;;14.00;8.18;;;;;;;12.50;43.83;101351.38;5055471;28;20029;-36
2022/03/11 11:14:12;;;;;;;21.23;8.93;;;;;;;12.83;44.04;101367.16;5055751;28;20079;-36
2022/03/11 11:16:42;;;;;;;;;;;;;;;12.87;43.75;101373.75;5056315;28;20068;-36
2022/03/11 11:19:20;;;;;;;12.05;8.15;;;;;;;12.69;43.38;101367.56;5055060;28;20292;-36
2022/03/11 11:21:48;;;;;;;11.70;8.23;;;;;;;12.74;43.16;101362.31;5055683;28;20029;-36
2022/03/11 11:24:18;;;;;;;14.10;8.07;;;;;;;12.86;43.86;101369.38;5055042;28;20087;-36
2022/03/11 11:26:51;;;;;;;12.80;8.82;;;;;;;12.96;43.36;101366.09;5055534;28;20043;-36
2022/03/11 11:29:20;;;;;;;16.20;8.18;;;;;;;13.04;43.93;101365.75;5055158;28;20029;-36
2022/03/11 11:31:46;;;;;;;18.05;8.50;;;;;;;13.12;44.21;101362.69;5055485;28;20025;-36